Orbital elements of SL-16 DEB
| Launched | 21 October 1985 |
| Flight ended | – |
| Launch site | Tyuratam Missile and Space Center, Kazakhstan (Also known as Baikonur Cosmodrome) |
| Owner | Commonwealth of Independent States (former USSR) |
| NORAD ID | 16391 |
| Date fetched |
Epoch osculation |
Inc. [°] |
Ecc. | RA asc node [hr] |
Arg Peri. [°] |
Mean anom [°] |
Mean motion [rev/day] |
Abs. mag |
| Date fetched |
Epoch osculation |
Inc. [°] |
Ecc. | RA asc node [hr] |
Arg Peri. [°] |
Mean anom [°] |
Mean motion [rev/day] |
Abs. mag |
| 2026 May 01 17:56 | 2026 Apr 30 14:29:49 | 70.9946 | 0.01911 | 15.1944 | 268.6584 | 201.4010 | 13.77203 | – |
| 2026 Apr 30 17:56 | 2026 Apr 30 14:29:49 | 70.9946 | 0.01911 | 15.1944 | 268.6584 | 201.4010 | 13.77203 | – |
| 2026 Apr 29 17:57 | 2026 Apr 24 11:52:58 | 70.9942 | 0.01910 | 15.9982 | 277.2877 | 201.4010 | 13.77203 | – |
| 2026 Apr 28 17:56 | 2026 Apr 24 11:52:58 | 70.9942 | 0.01910 | 15.9982 | 277.2877 | 201.4010 | 13.77203 | – |
| 2026 Apr 27 17:58 | 2026 Apr 24 11:52:58 | 70.9942 | 0.01910 | 15.9982 | 277.2877 | 201.4010 | 13.77203 | – |
| 2026 Apr 26 17:58 | 2026 Apr 24 11:52:58 | 70.9942 | 0.01910 | 15.9982 | 277.2877 | 201.4010 | 13.77203 | – |
| 2026 Apr 25 17:58 | 2026 Apr 24 11:52:58 | 70.9942 | 0.01910 | 15.9982 | 277.2877 | 201.4010 | 13.77203 | – |
| 2026 Apr 24 17:59 | 2026 Apr 24 11:52:58 | 70.9942 | 0.01910 | 15.9982 | 277.2877 | 201.4010 | 13.77203 | – |
| 2026 Apr 23 17:57 | 2026 Apr 19 03:25:43 | 70.9935 | 0.01910 | 16.7024 | 284.8502 | 201.4010 | 13.77203 | – |
| 2026 Apr 22 17:57 | 2026 Apr 19 03:25:43 | 70.9935 | 0.01910 | 16.7024 | 284.8502 | 201.4010 | 13.77203 | – |
| 2026 Apr 21 17:57 | 2026 Apr 19 03:25:43 | 70.9935 | 0.01910 | 16.7024 | 284.8502 | 201.4010 | 13.77203 | – |
| 2026 Apr 20 17:57 | 2026 Apr 19 03:25:43 | 70.9935 | 0.01910 | 16.7024 | 284.8502 | 201.4010 | 13.77203 | – |
| 2026 Apr 19 17:58 | 2026 Apr 19 03:25:43 | 70.9935 | 0.01910 | 16.7024 | 284.8502 | 201.4010 | 13.77203 | – |
| 2026 Apr 18 17:56 | 2026 Apr 13 04:29:02 | 70.9931 | 0.01909 | 17.4861 | 293.2611 | 201.4010 | 13.77203 | – |
| 2026 Apr 16 17:57 | 2026 Apr 13 04:29:02 | 70.9931 | 0.01909 | 17.4861 | 293.2611 | 201.4010 | 13.77203 | – |
| 2026 Apr 14 17:57 | 2026 Apr 13 04:29:02 | 70.9931 | 0.01909 | 17.4861 | 293.2611 | 201.4010 | 13.77203 | – |
| 2026 Apr 13 17:57 | 2026 Apr 13 04:29:02 | 70.9931 | 0.01909 | 17.4861 | 293.2611 | 201.4010 | 13.77203 | – |
| 2026 Apr 12 17:57 | 2026 Apr 08 14:05:33 | 70.9929 | 0.01908 | 18.0913 | 299.7638 | 201.4010 | 13.77203 | – |
| 2026 Apr 11 17:57 | 2026 Apr 08 14:05:33 | 70.9929 | 0.01908 | 18.0913 | 299.7638 | 201.4010 | 13.77203 | – |
| 2026 Apr 10 17:58 | 2026 Apr 08 14:05:33 | 70.9929 | 0.01908 | 18.0913 | 299.7638 | 201.4010 | 13.77203 | – |
| 2026 Apr 09 18:01 | 2026 Apr 08 14:05:33 | 70.9929 | 0.01908 | 18.0913 | 299.7638 | 201.4010 | 13.77203 | – |
| 2026 Apr 08 17:57 | 2026 Apr 08 14:05:33 | 70.9929 | 0.01908 | 18.0913 | 299.7638 | 201.4010 | 13.77203 | – |
| 2026 Apr 07 17:57 | 2026 Apr 02 07:01:17 | 70.9927 | 0.01906 | 18.9196 | 308.6732 | 201.4010 | 13.77203 | – |
| 2026 Apr 06 17:57 | 2026 Apr 02 07:01:17 | 70.9927 | 0.01906 | 18.9196 | 308.6732 | 201.4010 | 13.77203 | – |
| 2026 Apr 05 17:56 | 2026 Apr 02 07:01:17 | 70.9927 | 0.01906 | 18.9196 | 308.6732 | 201.4010 | 13.77203 | – |
| 2026 Apr 04 17:57 | 2026 Apr 02 07:01:17 | 70.9927 | 0.01906 | 18.9196 | 308.6732 | 201.4010 | 13.77203 | – |